Latest Coastal Weather Observations for Cato Island

IDQ60701

Issued at 7:31 pm EST Friday 31 July 2015 (issued every 10 minutes, with the page automatically refreshed every 10 minutes)

About coastal observations | Map of coastal stations | Coastal observations for QLD | Marine services | Other Formats
Station Details ID: 200601 Name: CATO ISLAND Lat: -23.25 Lon: 155.54 Height: 6.3 m
Data from the previous 72 hours. | See also: Recent months for locations in Queensland
Date/Time
EST
Temp

°C
Wind Pressure Rain
since 9am
mm
Weather Cloud Vis
km
Sea
Height
m
Swell
Dir
 
Speed
knots
Gust
knots
hPa Trend Height
m
Period
s
Dir
31/07:30pm 20.9 SE 17 21 1020.5 - - - - - - - - -
31/07:00pm 21.0 SE 17 21 1020.3 - - - - - - - - -
31/06:30pm 21.0 SSE 17 21 1020.0 - - - - - - - - -
31/06:00pm 20.9 SE 17 20 1019.9 - - - - - - - - -
31/05:30pm 20.9 SE 16 19 1019.6 - - - - - - - - -
31/05:00pm 20.9 SE 17 21 1019.5 - - - - - - - - -
31/04:30pm 21.1 SE 15 18 1019.4 - - - - - - - - -
31/04:00pm 21.1 SE 15 17 1019.1 - - - - - - - - -
31/03:30pm 21.2 SE 15 19 1019.1 - - - - - - - - -
31/03:00pm 21.3 SSE 17 20 1019.5 - - - - - - - - -
31/02:30pm 21.5 SSE 17 21 1020.1 - - - - - - - - -
31/02:00pm 21.4 SSE 16 19 1019.7 - - - - - - - - -
31/01:30pm 21.4 SE 15 19 1020.0 - - - - - - - - -
31/01:00pm 21.5 SSE 17 19 1020.3 - - - - - - - - -
31/12:30pm 21.8 SSE 15 18 1020.7 - - - - - - - - -
31/12:00pm 21.6 SSE 15 17 1021.0 - - - - - - - - -
31/11:30am 21.7 SE 13 15 1021.4 - - - - - - - - -
31/11:00am 21.5 SE 10 12 1021.8 - - - - - - - - -
31/10:30am 21.3 SE 9 11 1022.3 - - - - - - - - -
31/10:00am 20.9 ESE 17 22 1022.7 - - - - - - - - -
31/09:30am 21.5 SE 12 15 1023.1 - - - - - - - - -
31/09:00am 21.5 SE 12 14 1023.1 - - - - - - - - -
31/08:30am 21.2 SE 13 16 1022.7 - - - - - - - - -
31/08:00am 20.5 S 9 16 1022.4 - - - - - - - - -
31/07:30am 20.4 SE 18 23 1021.9 - - - - - - - - -
31/07:00am 20.6 SE 14 16 1021.7 - - - - - - - - -
31/06:30am 20.6 SE 13 17 1021.4 - - - - - - - - -
31/06:00am 20.5 SE 13 16 1021.0 - - - - - - - - -
31/05:30am 20.5 SE 15 17 1020.5 - - - - - - - - -
31/05:00am 20.5 ESE 15 18 1020.1 - - - - - - - - -
31/04:30am 20.2 ESE 14 16 1020.1 - - - - - - - - -
31/04:00am 20.3 ESE 15 19 1020.1 - - - - - - - - -
31/03:30am 20.4 SE 16 19 1020.3 - - - - - - - - -
31/03:00am 20.4 SE 15 18 1020.8 - - - - - - - - -
31/02:30am 20.5 SE 16 19 1020.9 - - - - - - - - -
31/02:00am 20.5 SE 16 19 1021.1 - - - - - - - - -
31/01:30am 20.5 SE 17 20 1021.4 - - - - - - - - -
31/01:00am 20.6 ESE 18 22 1021.4 - - - - - - - - -
31/12:30am 20.6 ESE 18 21 1021.5 - - - - - - - - -
31/12:00am 20.7 ESE 20 25 1021.8 - - - - - - - - -
 
Date/Time
EST
Temp

°C
Wind Pressure Rain
since 9am
mm
Weather Cloud Vis
km
Sea
Height
m
Swell
Dir
 
Speed
knots
Gust
knots
hPa Trend Height
m
Period
s
Dir
30/11:30pm 20.2 SE 21 28 1022.2 - - - - - - - - -
30/11:00pm 20.8 ESE 17 21 1022.6 - - - - - - - - -
30/10:30pm 20.9 ESE 18 21 1022.7 - - - - - - - - -
30/10:00pm 20.8 ESE 16 19 1023.0 - - - - - - - - -
30/09:30pm 20.7 SE 19 22 1023.0 - - - - - - - - -
30/09:00pm 20.8 SE 18 22 1022.9 - - - - - - - - -
30/08:30pm 20.9 ESE 19 22 1022.6 - - - - - - - - -
30/08:00pm 20.9 ESE 20 24 1022.2 - - - - - - - - -
30/07:30pm 20.8 ESE 20 24 1022.1 - - - - - - - - -
30/07:00pm 20.8 ESE 21 25 1021.8 - - - - - - - - -
30/06:30pm 21.0 ESE 20 25 1021.4 - - - - - - - - -
30/06:00pm 20.9 ESE 19 21 1021.7 - - - - - - - - -
30/05:30pm 20.6 SE 18 21 1021.6 - - - - - - - - -
30/05:00pm 20.6 ESE 19 22 1021.3 - - - - - - - - -
30/04:30pm 20.8 ESE 19 22 1021.2 - - - - - - - - -
30/04:00pm 19.8 ESE 16 22 1021.3 - - - - - - - - -
30/03:41pm 20.3 SE 17 27 1021.4 - - - - - - - - -
30/03:30pm 20.6 ESE 15 17 1021.3 - - - - - - - - -
30/03:00pm 20.4 E 14 16 1021.4 - - - - - - - - -
30/02:30pm 18.5 SSE 16 19 1021.6 - - - - - - - - -
30/02:28pm 18.8 SSE 16 19 1021.6 - - - - - - - - -
30/02:00pm 19.2 SE 23 28 1021.7 - - - - - - - - -
30/01:50pm 20.1 SE 22 25 1021.6 - - - - - - - - -
30/01:30pm 20.9 E 19 23 1021.7 - - - - - - - - -
30/01:00pm 21.1 ESE 18 22 1021.9 - - - - - - - - -
30/12:30pm 21.2 ESE 19 23 1022.2 - - - - - - - - -
30/12:00pm 21.1 ESE 18 22 1022.6 - - - - - - - - -
30/11:52am 20.8 ESE 17 21 1022.9 - - - - - - - - -
30/11:30am 19.8 E 20 28 1023.1 - - - - - - - - -
30/11:18am 20.1 ESE 20 30 1023.2 - - - - - - - - -
30/11:00am 19.4 SSE 12 16 1023.6 - - - - - - - - -
30/10:54am 19.3 SE 15 26 1023.6 - - - - - - - - -
30/10:30am 20.5 SE 20 24 1023.7 - - - - - - - - -
30/10:00am 19.1 SE 20 24 1024.3 - - - - - - - - -
30/09:44am 18.9 SSE 21 31 1024.4 - - - - - - - - -
30/09:30am 19.2 SE 23 31 1024.3 - - - - - - - - -
30/09:00am 20.1 SE 23 27 1024.4 - - - - - - - - -
30/08:49am 20.2 SE 15 25 1024.5 - - - - - - - - -
30/08:30am 20.4 ESE 17 22 1024.5 - - - - - - - - -
30/08:00am 20.4 ESE 21 24 1024.3 - - - - - - - - -
30/07:30am 19.1 E 24 28 1024.0 - - - - - - - - -
30/07:02am 19.2 E 20 30 1023.6 - - - - - - - - -
30/07:00am 19.2 E 20 30 1023.6 - - - - - - - - -
30/06:30am 20.5 ESE 19 25 1023.1 - - - - - - - - -
30/06:00am 20.0 E 20 24 1022.9 - - - - - - - - -
30/05:30am 20.5 ESE 21 25 1022.5 - - - - - - - - -
30/05:00am 20.4 ESE 23 27 1022.7 - - - - - - - - -
30/04:30am 19.7 E 24 28 1022.3 - - - - - - - - -
30/04:00am 20.4 SE 23 28 1022.2 - - - - - - - - -
30/03:30am 20.2 ESE 23 27 1022.5 - - - - - - - - -
30/03:00am 20.7 ESE 22 26 1022.5 - - - - - - - - -
30/02:30am 19.5 E 23 29 1023.0 - - - - - - - - -
30/02:00am 19.8 ESE 24 28 1023.3 - - - - - - - - -
30/01:30am 20.2 ESE 21 27 1023.6 - - - - - - - - -
30/01:00am 20.7 ESE 20 25 1024.0 - - - - - - - - -
30/12:30am 20.7 ESE 21 26 1024.2 - - - - - - - - -
30/12:00am 20.5 ESE 23 27 1024.4 - - - - - - - - -
 
Date/Time
EST
Temp

°C
Wind Pressure Rain
since 9am
mm
Weather Cloud Vis
km
Sea
Height
m
Swell
Dir
 
Speed
knots
Gust
knots
hPa Trend Height
m
Period
s
Dir
29/11:30pm 20.8 ESE 24 28 1024.6 - - - - - - - - -
29/11:00pm 20.6 ESE 25 29 1024.7 - - - - - - - - -
29/10:30pm 21.0 ESE 23 29 1024.7 - - - - - - - - -
29/10:00pm 20.6 ESE 22 32 1024.9 - - - - - - - - -
29/09:52pm 20.2 SE 21 32 1024.9 - - - - - - - - -
29/09:30pm 20.6 ESE 23 29 1025.0 - - - - - - - - -
29/09:00pm 21.1 ESE 23 26 1025.1 - - - - - - - - -
29/08:30pm 20.9 ESE 24 28 1025.0 - - - - - - - - -
29/08:00pm 21.0 ESE 21 26 1024.8 - - - - - - - - -
29/07:30pm 20.8 ESE 22 27 1024.7 - - - - - - - - -
29/07:00pm 20.9 ESE 23 28 1024.5 - - - - - - - - -
29/06:30pm 20.8 SE 23 29 1024.3 - - - - - - - - -
29/06:00pm 20.8 ESE 23 26 1024.1 - - - - - - - - -
29/05:30pm 20.8 ESE 23 27 1023.8 - - - - - - - - -
29/05:00pm 20.6 SE 20 25 1023.4 - - - - - - - - -
29/04:30pm 20.7 ESE 22 27 1023.2 - - - - - - - - -
29/04:00pm 20.5 ESE 19 22 1023.2 - - - - - - - - -
29/03:39pm 20.1 SE 24 27 1023.3 - - - - - - - - -
29/03:30pm 20.3 E 19 26 1023.4 - - - - - - - - -
29/03:11pm 20.1 ESE 22 34 1023.2 - - - - - - - - -
29/03:00pm 20.8 ESE 19 23 1023.3 - - - - - - - - -
29/02:30pm 21.0 ESE 22 25 1023.6 - - - - - - - - -
29/02:00pm 20.7 ESE 23 26 1023.8 - - - - - - - - -
29/01:30pm 20.4 ESE 21 27 1024.0 - - - - - - - - -
29/01:10pm 21.0 SE 22 35 1024.0 - - - - - - - - -
29/01:00pm 21.2 SE 21 25 1024.2 - - - - - - - - -
29/12:30pm 21.0 ESE 23 30 1024.3 - - - - - - - - -
29/12:00pm 21.1 ESE 23 27 1024.7 - - - - - - - - -
29/11:30am 20.9 ESE 24 29 1025.2 - - - - - - - - -
29/11:00am 21.3 ESE 22 26 1025.5 - - - - - - - - -
29/10:30am 21.3 SE 23 27 1025.9 - - - - - - - - -
29/10:00am 21.1 SE 24 28 1026.1 - - - - - - - - -
29/09:30am 20.9 SE 25 29 1026.2 - - - - - - - - -
29/09:00am 20.7 SE 24 29 1026.4 - - - - - - - - -
29/08:32am 20.5 SE 24 34 1026.1 - - - - - - - - -
29/08:30am 21.1 SE 22 28 1026.2 - - - - - - - - -
29/08:00am 21.0 SE 22 26 1026.3 - - - - - - - - -
29/07:30am 20.9 SE 24 28 1026.0 - - - - - - - - -
29/07:00am 21.0 SE 23 28 1025.8 - - - - - - - - -
29/06:30am 20.9 SE 24 28 1025.4 - - - - - - - - -
29/06:00am 21.0 SE 23 29 1025.1 - - - - - - - - -
29/05:30am 20.9 SE 22 27 1024.8 - - - - - - - - -
29/05:00am 20.9 SE 23 27 1024.6 - - - - - - - - -
29/04:30am 20.7 SE 22 27 1024.4 - - - - - - - - -
29/04:00am 20.7 SE 22 27 1024.3 - - - - - - - - -
29/03:30am 20.8 SE 22 26 1024.2 - - - - - - - - -
29/03:00am 20.7 SE 23 28 1024.4 - - - - - - - - -
29/02:30am 20.8 SE 24 28 1024.6 - - - - - - - - -
29/02:00am 20.8 SE 24 28 1024.7 - - - - - - - - -
29/01:34am 20.3 SE 22 32 1025.0 - - - - - - - - -
29/01:30am 20.2 SE 25 32 1025.0 - - - - - - - - -
29/01:00am 20.9 SE 23 27 1025.1 - - - - - - - - -
29/12:30am 20.9 ESE 24 29 1025.1 - - - - - - - - -
29/12:00am 20.9 SE 23 27 1025.2 - - - - - - - - -
 
Date/Time
EST
Temp

°C
Wind Pressure Rain
since 9am
mm
Weather Cloud Vis
km
Sea
Height
m
Swell
Dir
 
Speed
knots
Gust
knots
hPa Trend Height
m
Period
s
Dir
28/11:30pm 20.9 SE 23 27 1025.3 - - - - - - - - -
28/11:00pm 21.0 SE 23 25 1025.5 - - - - - - - - -
28/10:30pm 21.0 SE 22 30 1025.8 - - - - - - - - -
28/10:00pm 20.9 SE 23 27 1025.9 - - - - - - - - -
28/09:30pm 20.8 SE 25 30 1026.0 - - - - - - - - -
28/09:00pm 20.9 SE 25 29 1025.8 - - - - - - - - -
28/08:30pm 20.8 SE 25 29 1025.8 - - - - - - - - -
28/08:00pm 20.8 SSE 25 30 1025.7 - - - - - - - - -

Other Formats:

Comma delimited format used in spreadsheet applications
http://www.bom.gov.au/fwo/IDQ60701/IDQ60701.94394.axf

JavaScript Object Notation format (JSON) in row-major order
http://www.bom.gov.au/fwo/IDQ60701/IDQ60701.94394.json